createdAt,value
2022-08-26T00:00:06.820Z,54.2
2022-08-26T00:05:06.839Z,54.8
2022-08-26T00:10:06.859Z,60
2022-08-26T00:15:13.615Z,61.1
2022-08-26T00:20:13.613Z,61.6
2022-08-26T00:25:13.616Z,61.3
2022-08-26T00:30:14.016Z,61.2
2022-08-26T00:36:06.837Z,60.2
2022-08-26T00:41:13.686Z,60.5
2022-08-26T00:47:06.878Z,60
2022-08-26T00:52:06.843Z,59.8
2022-08-26T00:57:16.210Z,60
2022-08-26T01:03:11.448Z,60.6
2022-08-26T01:08:13.889Z,60.4
2022-08-26T01:14:06.868Z,60.7
2022-08-26T01:19:13.743Z,61.1
2022-08-26T01:25:06.862Z,62.2
2022-08-26T01:30:06.868Z,62.3
2022-08-26T01:35:06.869Z,62.7
2022-08-26T01:40:13.734Z,64.7
2022-08-26T01:46:06.971Z,65
2022-08-26T01:51:06.958Z,66.4
2022-08-26T01:56:06.880Z,68.9
2022-08-26T02:01:13.811Z,70.5
2022-08-26T02:07:07.408Z,70.2
2022-08-26T02:12:13.760Z,70.1
2022-08-26T02:18:06.876Z,72.7
2022-08-26T02:23:13.944Z,74.7
2022-08-26T02:28:14.217Z,75.1
2022-08-26T02:34:06.919Z,75.8
2022-08-26T02:39:19.511Z,76
2022-08-26T02:44:13.726Z,76.1
2022-08-26T02:49:13.876Z,77.2
2022-08-26T02:54:14.509Z,78.9
2022-08-26T03:00:06.891Z,78.3
2022-08-26T03:05:14.012Z,78.6
2022-08-26T03:11:06.890Z,79.3
2022-08-26T03:16:06.945Z,81.9
2022-08-26T03:21:06.926Z,83.7
2022-08-26T03:26:13.898Z,85.6
2022-08-26T03:32:07.119Z,86.1
2022-08-26T03:37:06.929Z,85.7
2022-08-26T03:42:14.349Z,89.4
2022-08-26T03:48:06.915Z,89
2022-08-26T03:53:14.404Z,87.9
2022-08-26T03:59:07.619Z,87.8
2022-08-26T04:04:06.950Z,90.7
2022-08-26T04:09:13.697Z,90.2
2022-08-26T04:14:14.260Z,89.9
2022-08-26T04:20:06.921Z,88.9
2022-08-26T04:25:06.961Z,90.2
2022-08-26T04:30:07.990Z,91.5
2022-08-26T04:35:14.042Z,89.8
2022-08-26T04:41:14.770Z,89.3
2022-08-26T04:46:06.971Z,88.2
2022-08-26T04:51:06.932Z,93.2
2022-08-26T04:56:06.947Z,89.5
2022-08-26T05:01:13.738Z,90.1
2022-08-26T05:06:14.097Z,89.9
2022-08-26T05:12:06.925Z,89.7
2022-08-26T05:17:15.060Z,88.2
2022-08-26T05:23:07.086Z,88.2
2022-08-26T05:28:13.726Z,86.3
2022-08-26T05:33:13.982Z,87.4
2022-08-26T05:38:14.224Z,86.9
2022-08-26T05:44:06.949Z,86.5
2022-08-26T05:49:12.768Z,86.1
2022-08-26T05:54:14.377Z,85.7
2022-08-26T06:00:06.942Z,86.1
2022-08-26T06:05:07.663Z,84.9
2022-08-26T06:10:33.294Z,85.4
2022-08-26T06:15:07.006Z,85.7
2022-08-26T06:20:13.769Z,85.9
2022-08-26T06:25:14.454Z,84.7
2022-08-26T06:31:07.018Z,84.9
2022-08-26T06:36:14.270Z,82.9
2022-08-26T06:41:14.449Z,83.5
2022-08-26T06:47:06.954Z,82.9
2022-08-26T06:52:14.446Z,82.4
2022-08-26T06:58:06.970Z,80.8
2022-08-26T07:03:15.451Z,80.9
2022-08-26T07:09:07.000Z,81.9
2022-08-26T07:14:14.570Z,79.9
2022-08-26T07:20:07.005Z,79.8
2022-08-26T07:25:13.750Z,79.5
2022-08-26T07:30:14.741Z,78.5
2022-08-26T07:35:14.578Z,78.5
2022-08-26T07:41:06.973Z,79.9
2022-08-26T07:46:07.006Z,78.8
2022-08-26T07:51:14.073Z,77.5
2022-08-26T07:56:14.684Z,77.6
2022-08-26T08:02:06.972Z,76.1
2022-08-26T08:07:07.531Z,76.2
2022-08-26T08:12:14.169Z,75.8
2022-08-26T08:17:13.781Z,77.3
2022-08-26T08:22:17.232Z,77.9
2022-08-26T08:27:14.283Z,80.4
2022-08-26T08:33:06.992Z,79.1
2022-08-26T08:38:13.786Z,78.7
2022-08-26T08:43:13.790Z,78.3
2022-08-26T08:49:06.985Z,77.1
2022-08-26T08:54:06.989Z,75.9
2022-08-26T08:59:07.001Z,74.2
2022-08-26T09:04:07.012Z,74.1
2022-08-26T09:09:13.806Z,73.6
2022-08-26T09:14:14.367Z,73.2
2022-08-26T09:19:14.469Z,72.8
2022-08-26T09:25:07.039Z,73.1
2022-08-26T09:30:13.819Z,70.9
2022-08-26T09:36:07.008Z,71.3
2022-08-26T09:41:14.011Z,70.6
2022-08-26T09:46:14.392Z,69.8
2022-08-26T09:52:07.030Z,74.2
2022-08-26T09:57:14.567Z,69.4
2022-08-26T10:03:07.030Z,69.8
2022-08-26T10:08:13.838Z,72.4
2022-08-26T10:14:07.030Z,70.4
2022-08-26T10:19:07.034Z,69.8
2022-08-26T10:24:07.049Z,69.1
2022-08-26T10:29:14.436Z,68.7
2022-08-26T10:35:07.046Z,67.9
2022-08-26T10:40:13.863Z,69.6
2022-08-26T10:45:15.315Z,67.7
2022-08-26T10:50:13.925Z,68.1
2022-08-26T10:56:18.832Z,68.5
2022-08-26T11:01:10.267Z,68.4
2022-08-26T11:06:07.072Z,68.8
2022-08-26T11:11:14.475Z,69.1
2022-08-26T11:17:07.046Z,68.7
2022-08-26T11:22:13.905Z,69.3
2022-08-26T11:27:14.041Z,69
2022-08-26T11:33:07.175Z,66
2022-08-26T11:38:14.605Z,66.8
2022-08-26T11:44:07.057Z,64.8
2022-08-26T11:49:07.062Z,65.2
2022-08-26T11:54:14.567Z,63.5
2022-08-26T12:00:08.431Z,62.8
2022-08-26T12:05:14.465Z,62.1
2022-08-26T12:11:07.077Z,60.6
2022-08-26T12:16:13.915Z,60.6
2022-08-26T12:21:13.873Z,60.9
2022-08-26T12:26:14.143Z,61.3
2022-08-26T12:31:14.457Z,61.1
2022-08-26T12:37:07.248Z,60.8
2022-08-26T12:42:07.116Z,62.3
2022-08-26T12:47:14.429Z,60.5
2022-08-26T12:53:07.106Z,59.4
2022-08-26T12:58:07.319Z,59.4
2022-08-26T13:03:14.714Z,60.2
2022-08-26T13:09:07.085Z,61.7
2022-08-26T13:14:07.473Z,59.7
2022-08-26T13:19:10.609Z,59.2
2022-08-26T13:24:14.217Z,57.3
2022-08-26T13:30:07.103Z,57.9
2022-08-26T13:35:07.145Z,58.6
2022-08-26T13:40:14.110Z,59.1
2022-08-26T13:46:07.094Z,57.8
2022-08-26T13:51:08.911Z,57.5
2022-08-26T13:56:14.743Z,57.6
2022-08-26T14:02:07.094Z,59
2022-08-26T14:07:07.117Z,59.3
2022-08-26T14:12:13.895Z,60.1
2022-08-26T14:17:14.055Z,60.9
2022-08-26T14:22:14.398Z,62.1
2022-08-26T14:27:14.478Z,60.6
2022-08-26T14:33:07.102Z,62.2
2022-08-26T14:38:07.105Z,61.9
2022-08-26T14:43:13.880Z,61.8
2022-08-26T14:48:13.906Z,62.1
2022-08-26T14:53:14.485Z,61
2022-08-26T14:59:07.106Z,61.8
2022-08-26T15:04:07.143Z,62.1
2022-08-26T15:09:13.900Z,63.3
2022-08-26T15:15:07.129Z,65.3
2022-08-26T15:20:07.120Z,65.4
2022-08-26T15:25:13.914Z,65.8
2022-08-26T15:30:14.394Z,65.2
2022-08-26T15:36:07.150Z,66.9
2022-08-26T15:41:14.131Z,65.3
2022-08-26T15:46:14.563Z,66.6
2022-08-26T15:52:07.161Z,65.6
2022-08-26T15:57:16.420Z,67
2022-08-26T16:03:07.156Z,68.2
2022-08-26T16:08:13.982Z,67.1
2022-08-26T16:13:14.994Z,66.7
2022-08-26T16:19:07.739Z,66.4
2022-08-26T16:24:13.930Z,65.8
2022-08-26T16:29:14.460Z,65.1
2022-08-26T16:35:07.158Z,67.2
2022-08-26T16:40:07.240Z,66.5
2022-08-26T16:45:07.162Z,65.6
2022-08-26T16:50:07.248Z,67.4
2022-08-26T16:55:13.942Z,67.3
2022-08-26T17:00:14.279Z,66.3
2022-08-26T17:05:14.410Z,65.8
2022-08-26T17:11:07.155Z,66.7
2022-08-26T17:16:07.238Z,66.6
2022-08-26T17:21:07.202Z,68.2
2022-08-26T17:26:14.037Z,69.5
2022-08-26T17:31:14.068Z,71.3
2022-08-26T17:36:14.023Z,68.6
2022-08-26T17:41:14.190Z,68.7
2022-08-26T17:47:07.206Z,69.5
2022-08-26T17:52:11.358Z,68.7
2022-08-26T17:57:14.371Z,68.9
2022-08-26T18:02:14.335Z,71.4
2022-08-26T18:08:07.205Z,71.8
2022-08-26T18:13:13.975Z,71.8
2022-08-26T18:19:07.197Z,72.9
2022-08-26T18:24:14.661Z,74
2022-08-26T18:30:07.205Z,74.8
2022-08-26T18:35:13.973Z,74.2
2022-08-26T18:40:14.018Z,72.5
2022-08-26T18:45:16.415Z,74.2
2022-08-26T18:51:07.222Z,75.1
2022-08-26T18:56:07.217Z,74.7
2022-08-26T19:01:14.926Z,73.7
2022-08-26T19:07:07.250Z,75.4
2022-08-26T19:12:13.976Z,73
2022-08-26T19:17:14.283Z,73.8
2022-08-26T19:22:14.511Z,74.6
2022-08-26T19:28:07.216Z,76
2022-08-26T19:33:07.253Z,76.2
2022-08-26T19:38:07.248Z,76.1
2022-08-26T19:43:14.008Z,76.5
2022-08-26T19:48:14.315Z,75.2
2022-08-26T19:54:07.211Z,76.5
2022-08-26T19:59:07.217Z,75.6
2022-08-26T20:04:07.236Z,74.6
2022-08-26T20:09:14.012Z,75.8
2022-08-26T20:14:14.316Z,74.6
2022-08-26T20:20:07.210Z,76.6
2022-08-26T20:25:07.244Z,75.1
2022-08-26T20:30:07.246Z,74.5
2022-08-26T20:35:07.254Z,73.6
2022-08-26T20:40:07.329Z,74.4
2022-08-26T20:45:14.050Z,78.6
2022-08-26T20:51:07.250Z,76.6
2022-08-26T20:56:14.049Z,76.3
2022-08-26T21:01:14.521Z,76
2022-08-26T21:07:07.255Z,78.1
2022-08-26T21:12:14.016Z,81
2022-08-26T21:17:14.405Z,81.1
2022-08-26T21:22:14.773Z,83.1
2022-08-26T21:28:07.239Z,83.9
2022-08-26T21:33:07.256Z,82
2022-08-26T21:38:14.556Z,82.4
2022-08-26T21:43:27.778Z,82.6
2022-08-26T21:49:07.246Z,81.9
2022-08-26T21:54:10.698Z,82.7
2022-08-26T21:59:14.105Z,84
2022-08-26T22:05:07.263Z,82.5
2022-08-26T22:10:07.270Z,85.1
2022-08-26T22:15:14.058Z,83.4
2022-08-26T22:20:16.478Z,84.8
2022-08-26T22:26:07.257Z,87.9
2022-08-26T22:31:07.293Z,87
2022-08-26T22:36:14.186Z,85.1
2022-08-26T22:41:14.172Z,86.4
2022-08-26T22:46:14.838Z,88.6
2022-08-26T22:52:07.304Z,88.1
2022-08-26T22:57:14.145Z,91.6
2022-08-26T23:03:07.315Z,94.4
2022-08-26T23:08:07.314Z,92.3
2022-08-26T23:13:07.287Z,91.8
2022-08-26T23:18:14.362Z,93.4
2022-08-26T23:23:14.827Z,90.6
2022-08-26T23:29:07.317Z,92.4
2022-08-26T23:34:14.058Z,92.3
2022-08-26T23:39:14.080Z,90.5
2022-08-26T23:45:07.494Z,89.5
2022-08-26T23:50:07.312Z,89.8
2022-08-26T23:55:14.109Z,87.7
